Upson, Wisconsin
Current Conditions -  °F | °C
As of 8:55 AM on Saturday 20 Dec 2014 (Local Time) from KIWD Reporting Station
Overcast Overcast  
Wind Chill: 18°   Ceiling: 2200
Heat Index: 25°   Visibility: 8mi
Dew Point: 25°   Wind: 6mph
Humidity: 100%   Direction: 170°S
Pressure: 30.15"   Gusts: NA
Location:  46.37°N, 90.41°W
Report Text: KIWD 201455Z AUTO 17005KT 8SM OVC022 M04/M04 A3015 RMK AO1 54000
Loading
Personal Weather Stations






























Interactive Weather Map New forecast layout! Learn more

10-Day Weather Forecast

Advertisements
Track Severe Weather on mobile